Time;durP1;ratioP1;P1;durP2;ratioP2;P2;SDS_P1;SDS_P2;PMS_P1;PMS_P2;Temp;Humidity;BMP_temperature;BMP_pressure;BME280_temperature;BME280_humidity;BME280_pressure;Samples;Min_cycle;Max_cycle;Signal;HPM_P1;HPM_P2
2022/01/31 00:00:21;;;;;;;11.70;2.90;;;;;;;2.30;78.98;98568.50;5057961;28;20642;-68
2022/01/31 00:02:48;;;;;;;9.43;2.83;;;;;;;2.28;79.19;98557.31;5058002;28;20221;-67
2022/01/31 00:05:15;;;;;;;11.53;3.20;;;;;;;2.31;79.22;98565.69;5058217;28;20480;-67
2022/01/31 00:07:42;;;;;;;11.13;2.80;;;;;;;2.27;80.16;98556.53;5057900;28;20501;-67
2022/01/31 00:10:11;;;;;;;9.37;2.80;;;;;;;2.26;79.33;98552.22;5057881;28;20651;-68
2022/01/31 00:12:48;;;;;;;14.07;3.13;;;;;;;2.33;79.77;98547.19;5058088;28;20246;-68
2022/01/31 00:15:15;;;;;;;10.20;2.83;;;;;;;2.36;79.08;98552.13;5058084;28;20276;-68
2022/01/31 00:17:41;;;;;;;7.57;2.70;;;;;;;2.39;79.09;98550.00;5058105;28;20543;-68
2022/01/31 00:20:08;;;;;;;11.37;2.77;;;;;;;2.43;78.99;98551.34;5057624;28;20643;-67
2022/01/31 00:22:35;;;;;;;10.37;3.10;;;;;;;2.46;79.17;98550.22;5057912;28;20225;-68
2022/01/31 00:25:01;;;;;;;11.40;2.80;;;;;;;2.43;79.71;98540.06;5057896;28;20200;-67
2022/01/31 00:27:27;;;;;;;7.73;3.10;;;;;;;2.50;78.80;98527.94;5057870;28;20193;-68
2022/01/31 00:29:54;;;;;;;7.63;2.67;;;;;;;2.52;79.18;98518.94;5057794;28;20190;-68
2022/01/31 00:32:20;;;;;;;11.20;2.60;;;;;;;2.49;79.34;98513.19;5057703;28;20225;-67
2022/01/31 00:34:46;;;;;;;10.77;3.23;;;;;;;2.47;79.90;98509.88;5057414;28;20592;-67
2022/01/31 00:37:13;;;;;;;8.47;3.13;;;;;;;2.54;79.09;98510.91;5057679;28;20484;-67
2022/01/31 00:39:39;;;;;;;12.73;3.27;;;;;;;2.52;78.98;98510.25;5057257;28;20627;-67
2022/01/31 00:42:07;;;;;;;12.27;2.60;;;;;;;2.48;79.89;98522.03;5056678;28;20659;-68
2022/01/31 00:44:42;;;;;;;12.97;3.13;;;;;;;2.52;79.85;98518.13;5057524;28;20209;-67
2022/01/31 00:47:18;;;;;;;8.93;2.37;;;;;;;2.66;78.96;98510.44;5058140;28;20208;-67
2022/01/31 00:49:50;;;;;;;9.37;2.90;;;;;;;2.66;78.83;98488.66;5057450;28;20227;-67
2022/01/31 00:52:16;;;;;;;11.27;3.43;;;;;;;2.58;79.23;98481.53;5057330;28;20260;-68
2022/01/31 00:54:42;;;;;;;14.83;3.70;;;;;;;2.66;78.45;98475.53;5057365;28;20193;-67
2022/01/31 00:57:09;;;;;;;10.43;3.00;;;;;;;2.61;79.03;98468.13;5057318;28;20186;-67
2022/01/31 00:59:35;;;;;;;14.27;3.37;;;;;;;2.62;78.66;98451.38;5057200;28;20220;-67
2022/01/31 01:02:02;;;;;;;13.90;3.50;;;;;;;2.65;78.75;98445.00;5056811;28;20666;-67
2022/01/31 01:04:28;;;;;;;11.83;3.30;;;;;;;2.67;78.49;98440.41;5057177;28;20198;-68
2022/01/31 01:06:54;;;;;;;10.37;3.93;;;;;;;2.67;78.68;98438.59;5057122;28;20199;-67
2022/01/31 01:09:21;;;;;;;12.07;3.30;;;;;;;2.63;78.93;98436.47;5057102;28;20193;-67
2022/01/31 01:11:47;;;;;;;10.93;3.13;;;;;;;2.69;78.93;98433.19;5057006;28;20221;-67
2022/01/31 01:14:13;;;;;;;11.37;3.10;;;;;;;2.77;78.62;98427.97;5057001;28;20194;-68
2022/01/31 01:16:40;;;;;;;12.40;2.77;;;;;;;2.70;78.84;98429.56;5056925;28;20202;-68
2022/01/31 01:19:06;;;;;;;8.73;3.10;;;;;;;2.72;78.99;98415.34;5056558;28;20623;-67
2022/01/31 01:21:34;;;;;;;7.53;2.67;;;;;;;2.72;79.11;98419.75;5056895;28;20225;-67
2022/01/31 01:24:00;;;;;;;8.87;2.80;;;;;;;2.72;78.91;98411.88;5056875;28;20190;-68
2022/01/31 01:26:27;;;;;;;11.80;3.60;;;;;;;2.78;78.84;98419.09;5056853;28;20197;-70
2022/01/31 01:28:53;;;;;;;9.70;3.17;;;;;;;2.73;78.49;98397.75;5056495;28;20206;-70
2022/01/31 01:31:19;;;;;;;12.17;3.03;;;;;;;2.75;79.08;98372.19;5056720;28;20224;-69
2022/01/31 01:33:46;;;;;;;13.73;3.40;;;;;;;2.72;78.84;98365.47;5056715;28;20194;-70
2022/01/31 01:36:13;;;;;;;11.53;3.37;;;;;;;2.67;78.92;98356.41;5056696;28;20197;-70
2022/01/31 01:38:39;;;;;;;11.20;3.50;;;;;;;2.70;79.27;98345.56;5056354;28;20584;-70
2022/01/31 01:41:06;;;;;;;13.63;3.23;;;;;;;2.71;78.75;98347.25;5056294;28;20206;-70
2022/01/31 01:43:32;;;;;;;7.17;2.47;;;;;;;2.73;79.47;98340.84;5056593;28;20204;-71
2022/01/31 01:46:00;;;;;;;9.53;3.30;;;;;;;2.71;79.92;98342.00;5056580;28;20276;-70
2022/01/31 01:48:27;;;;;;;8.63;2.93;;;;;;;2.75;79.22;98317.06;5056579;28;20194;-71
2022/01/31 01:50:55;;;;;;;11.43;3.27;;;;;;;2.76;79.25;98289.81;5056449;28;20196;-71
2022/01/31 01:53:22;;;;;;;12.13;3.63;;;;;;;2.73;79.27;98254.22;5055716;28;20185;-71
2022/01/31 01:55:51;;;;;;;14.07;3.57;;;;;;;2.75;79.56;98239.13;5056479;28;20276;-71
2022/01/31 01:58:17;;;;;;;12.67;3.63;;;;;;;2.62;80.07;98241.41;5056462;28;20298;-71
2022/01/31 02:00:50;;;;;;;5.60;3.33;;;;;;;2.68;79.64;98226.81;5056354;28;20213;-71
2022/01/31 02:03:22;;;;;;;12.87;3.30;;;;;;;2.72;80.34;98231.59;5056030;28;20264;-71
2022/01/31 02:05:49;;;;;;;11.23;3.80;;;;;;;2.67;79.77;98209.44;5056294;28;20197;-71
2022/01/31 02:08:17;;;;;;;13.20;3.30;;;;;;;2.72;79.46;98212.38;5056305;28;20196;-71
2022/01/31 02:10:44;;;;;;;7.33;3.07;;;;;;;2.67;79.70;98196.31;5056036;28;20185;-71
2022/01/31 02:13:10;;;;;;;14.57;3.30;;;;;;;2.69;79.60;98175.97;5056725;28;20220;-71
2022/01/31 02:15:38;;;;;;;11.37;3.70;;;;;;;2.59;80.28;98185.81;5056194;28;20185;-71
2022/01/31 02:18:05;;;;;;;8.87;3.40;;;;;;;2.61;80.08;98182.03;5056034;28;20320;-71
2022/01/31 02:20:36;;;;;;;10.33;3.30;;;;;;;2.60;80.23;98177.78;5055823;28;20634;-71
2022/01/31 02:23:03;;;;;;;17.57;3.80;;;;;;;2.63;79.93;98180.09;5055843;28;20761;-71
2022/01/31 02:25:29;;;;;;;16.13;4.27;;;;;;;2.65;79.70;98166.78;5056184;28;20193;-71
2022/01/31 02:27:55;;;;;;;6.93;3.13;;;;;;;2.58;79.97;98150.06;5056161;28;20194;-71
2022/01/31 02:30:22;;;;;;;12.00;3.67;;;;;;;2.58;80.68;98152.69;5056139;28;20186;-71
2022/01/31 02:32:48;;;;;;;9.17;3.40;;;;;;;2.63;80.34;98160.88;5056073;28;20316;-71
2022/01/31 02:35:15;;;;;;;11.10;3.17;;;;;;;2.63;80.13;98159.09;5056102;28;20193;-72
2022/01/31 02:37:41;;;;;;;9.13;3.43;;;;;;;2.61;80.43;98150.56;5056527;28;20194;-70
2022/01/31 02:40:08;;;;;;;9.47;3.17;;;;;;;2.65;80.41;98153.66;5055662;28;20213;-70
2022/01/31 02:42:35;;;;;;;11.83;3.33;;;;;;;2.68;80.17;98161.19;5055424;28;20534;-70
2022/01/31 02:45:02;;;;;;;9.67;3.43;;;;;;;2.76;79.94;98150.69;5055282;28;20209;-70
2022/01/31 02:47:32;;;;;;;12.13;3.50;;;;;;;2.71;79.86;98135.44;5055950;28;20197;-70
2022/01/31 02:50:01;;;;;;;10.70;3.10;;;;;;;2.74;80.28;98123.78;5055633;28;20189;-70
2022/01/31 02:52:31;;;;;;;10.97;3.60;;;;;;;2.78;79.62;98117.19;5055859;28;20264;-70
2022/01/31 02:54:58;;;;;;;8.20;3.40;;;;;;;2.69;79.30;98105.09;5055920;28;20194;-70
2022/01/31 02:57:25;;;;;;;8.87;3.10;;;;;;;2.71;79.87;98095.25;5055895;28;20193;-70
2022/01/31 02:59:51;;;;;;;9.20;3.17;;;;;;;2.68;79.78;98072.78;5055782;28;20244;-70
2022/01/31 03:02:18;;;;;;;10.40;3.40;;;;;;;2.61;80.20;98055.25;5055776;28;20243;-70
2022/01/31 03:04:44;;;;;;;12.50;3.50;;;;;;;2.62;80.28;98051.66;5057506;28;20194;-70
2022/01/31 03:07:11;;;;;;;12.73;3.37;;;;;;;2.62;80.39;98043.78;5059386;28;20199;-70
2022/01/31 03:09:37;;;;;;;10.17;3.43;;;;;;;2.63;80.91;98053.28;5059058;28;20592;-70
2022/01/31 03:12:04;;;;;;;9.83;3.30;;;;;;;2.62;81.17;98054.28;5058992;28;20669;-70
2022/01/31 03:14:31;;;;;;;9.20;3.77;;;;;;;2.57;81.20;98054.78;5059300;28;20201;-70
2022/01/31 03:16:58;;;;;;;10.37;3.67;;;;;;;2.63;80.79;98034.91;5059290;28;20189;-70
2022/01/31 03:19:24;;;;;;;10.20;3.13;;;;;;;2.59;81.09;98017.88;5059095;28;20190;-70
2022/01/31 03:21:52;;;;;;;9.53;3.90;;;;;;;2.59;81.84;98008.19;5059025;28;20227;-70
2022/01/31 03:24:18;;;;;;;10.13;3.30;;;;;;;2.52;81.20;97998.56;5059155;28;20220;-70
2022/01/31 03:26:44;;;;;;;9.70;3.60;;;;;;;2.46;82.11;97993.97;5059018;28;20477;-70
2022/01/31 03:29:11;;;;;;;10.20;4.03;;;;;;;2.47;81.38;97980.69;5058703;28;20193;-70
2022/01/31 03:31:37;;;;;;;11.03;3.20;;;;;;;2.38;82.10;97970.38;5058501;28;20644;-70
2022/01/31 03:34:04;;;;;;;7.83;3.13;;;;;;;2.44;81.74;97954.78;5058840;28;20197;-70
2022/01/31 03:36:30;;;;;;;11.00;3.33;;;;;;;2.45;81.57;97939.88;5058530;28;20190;-70
2022/01/31 03:38:57;;;;;;;6.40;2.63;;;;;;;2.38;82.05;97924.00;5058807;28;20200;-71
2022/01/31 03:41:24;;;;;;;6.37;3.10;;;;;;;2.44;81.42;97906.75;5058444;28;20229;-69
2022/01/31 03:43:50;;;;;;;10.20;3.17;;;;;;;2.47;81.65;97924.75;5058743;28;20197;-70
2022/01/31 03:46:17;;;;;;;8.10;3.40;;;;;;;2.48;81.57;97934.28;5058647;28;20201;-70
2022/01/31 03:48:45;;;;;;;8.17;2.90;;;;;;;2.58;80.79;97958.50;5058610;28;20203;-70
2022/01/31 03:51:12;;;;;;;15.47;3.70;;;;;;;2.56;80.56;97966.53;5058166;28;20215;-70
2022/01/31 03:53:38;;;;;;;13.87;3.50;;;;;;;2.62;80.39;97959.81;5058244;28;20196;-70
2022/01/31 03:56:05;;;;;;;6.63;3.13;;;;;;;2.66;80.19;97963.72;5059007;28;20201;-70
2022/01/31 03:58:31;;;;;;;8.90;3.30;;;;;;;2.66;80.38;97955.84;5058312;28;20190;-70
2022/01/31 04:00:58;;;;;;;9.13;3.27;;;;;;;2.69;80.60;97965.97;5058165;28;20217;-70
2022/01/31 04:03:24;;;;;;;12.33;3.27;;;;;;;2.64;80.96;97957.81;5058279;28;20190;-70
2022/01/31 04:05:50;;;;;;;14.40;3.37;;;;;;;2.68;80.46;97951.22;5058272;28;20193;-71
2022/01/31 04:08:17;;;;;;;8.83;3.30;;;;;;;2.69;80.67;97942.38;5058225;28;20190;-70
2022/01/31 04:10:44;;;;;;;9.83;3.20;;;;;;;2.73;80.13;97935.78;5058672;28;20196;-70
2022/01/31 04:13:11;;;;;;;9.60;3.30;;;;;;;2.77;79.62;97939.69;5057966;28;20217;-70
2022/01/31 04:15:39;;;;;;;7.67;2.77;;;;;;;2.79;79.53;97929.84;5057034;28;20194;-70
2022/01/31 04:18:05;;;;;;;8.63;3.20;;;;;;;2.79;79.28;97935.09;5057924;28;20280;-70
2022/01/31 04:20:32;;;;;;;8.87;3.17;;;;;;;2.87;79.68;97924.53;5057821;28;20214;-72
2022/01/31 04:23:03;;;;;;;9.67;2.97;;;;;;;2.84;79.80;97923.09;5057900;28;20221;-72
2022/01/31 04:25:41;;;;;;;6.80;2.77;;;;;;;2.92;78.74;97920.41;5057731;28;20197;-72
2022/01/31 04:28:16;;;;;;;7.40;2.50;;;;;;;2.96;78.17;97915.63;5057655;28;20193;-72
2022/01/31 04:30:49;;;;;;;9.73;2.67;;;;;;;2.99;78.57;97902.16;5057551;28;20207;-72
2022/01/31 04:33:16;;;;;;;7.20;2.57;;;;;;;3.03;77.87;97903.44;5056881;28;20217;-72
2022/01/31 04:35:42;;;;;;;11.07;2.87;;;;;;;3.00;78.31;97909.84;5057047;28;20695;-69
2022/01/31 04:38:08;;;;;;;8.27;2.97;;;;;;;3.04;78.53;97889.31;5056896;28;20608;-70
2022/01/31 04:40:35;;;;;;;7.77;2.90;;;;;;;3.01;78.65;97893.09;5057258;28;20221;-70
2022/01/31 04:43:01;;;;;;;10.33;3.00;;;;;;;3.02;78.42;97880.81;5056710;28;20243;-70
2022/01/31 04:45:27;;;;;;;6.97;3.27;;;;;;;3.04;78.50;97869.13;5057161;28;20194;-70
2022/01/31 04:47:54;;;;;;;7.87;2.53;;;;;;;3.08;78.88;97861.72;5057168;28;20204;-70
2022/01/31 04:50:20;;;;;;;7.60;2.60;;;;;;;3.04;78.77;97848.13;5057177;28;20190;-70
2022/01/31 04:52:47;;;;;;;9.70;2.97;;;;;;;3.09;78.92;97830.03;5057072;28;20221;-70
2022/01/31 04:55:13;;;;;;;9.57;3.07;;;;;;;3.07;79.04;97815.44;5056951;28;20196;-70
2022/01/31 04:57:40;;;;;;;7.43;2.67;;;;;;;3.10;78.78;97809.81;5057166;28;20504;-70
2022/01/31 05:00:09;;;;;;;12.17;2.90;;;;;;;3.14;77.94;97793.53;5057035;28;20209;-70
2022/01/31 05:02:36;;;;;;;13.87;2.90;;;;;;;3.21;78.79;97785.75;5056879;28;20312;-70
2022/01/31 05:05:04;;;;;;;7.30;2.60;;;;;;;3.24;78.40;97770.44;5056430;28;20483;-70
2022/01/31 05:07:30;;;;;;;8.30;2.63;;;;;;;3.29;77.99;97768.09;5056553;28;20194;-70
2022/01/31 05:09:57;;;;;;;5.73;2.53;;;;;;;3.31;77.78;97754.78;5056757;28;20193;-70
2022/01/31 05:12:25;;;;;;;5.80;2.43;;;;;;;3.38;76.83;97740.72;5056823;28;20225;-71
2022/01/31 05:14:51;;;;;;;9.37;2.87;;;;;;;3.38;77.55;97730.22;5056884;28;20208;-70
2022/01/31 05:17:17;;;;;;;9.20;2.73;;;;;;;3.41;76.75;97713.28;5056742;28;20200;-71
2022/01/31 05:19:44;;;;;;;9.83;2.60;;;;;;;3.43;77.01;97708.66;5056445;28;20208;-71
2022/01/31 05:22:10;;;;;;;8.47;2.70;;;;;;;3.43;77.74;97685.03;5056285;28;20225;-71
2022/01/31 05:24:36;;;;;;;7.63;2.77;;;;;;;3.52;77.58;97679.47;5056466;28;20186;-71
2022/01/31 05:27:03;;;;;;;9.03;3.20;;;;;;;3.42;77.87;97676.31;5056205;28;20185;-72
2022/01/31 05:29:29;;;;;;;6.90;2.90;;;;;;;3.35;78.16;97690.38;5056022;28;20493;-71
2022/01/31 05:31:56;;;;;;;10.80;3.43;;;;;;;3.45;77.72;97681.22;5055984;28;20217;-71
2022/01/31 05:34:24;;;;;;;7.67;3.10;;;;;;;3.41;78.10;97692.25;5056452;28;20201;-70
2022/01/31 05:36:51;;;;;;;8.07;3.63;;;;;;;3.32;79.13;97678.41;5056364;28;20193;-71
2022/01/31 05:39:18;;;;;;;7.83;3.00;;;;;;;3.40;78.55;97675.69;5056211;28;20201;-70
2022/01/31 05:41:44;;;;;;;6.83;2.70;;;;;;;3.38;78.69;97676.84;5055565;28;20233;-71
2022/01/31 05:44:10;;;;;;;7.60;2.90;;;;;;;3.33;79.04;97656.41;5055903;28;20204;-71
2022/01/31 05:46:37;;;;;;;5.87;2.40;;;;;;;3.61;76.73;97656.53;5056042;28;20200;-70
2022/01/31 05:49:03;;;;;;;6.80;2.70;;;;;;;3.61;76.98;97646.81;5056216;28;20190;-71
2022/01/31 05:51:30;;;;;;;7.47;2.97;;;;;;;3.59;77.69;97626.97;5055760;28;20662;-70
2022/01/31 05:53:56;;;;;;;5.90;2.17;;;;;;;3.75;76.60;97618.88;5056171;28;20189;-71
2022/01/31 05:56:23;;;;;;;11.73;3.07;;;;;;;3.91;75.87;97618.63;5056104;28;20213;-70
2022/01/31 05:58:50;;;;;;;7.40;2.47;;;;;;;3.99;75.17;97623.75;5055806;28;20189;-70
2022/01/31 06:01:17;;;;;;;6.77;3.00;;;;;;;4.07;74.82;97607.88;5055791;28;20279;-70
2022/01/31 06:03:43;;;;;;;8.27;2.53;;;;;;;4.14;75.17;97601.66;5055738;28;20490;-70
2022/01/31 06:06:10;;;;;;;7.30;2.70;;;;;;;4.06;77.26;97593.88;5056023;28;20197;-70
2022/01/31 06:08:36;;;;;;;7.03;2.57;;;;;;;4.03;77.60;97593.47;5055847;28;20189;-70
2022/01/31 06:11:02;;;;;;;9.17;2.73;;;;;;;4.03;77.85;97580.31;5055518;28;20199;-71
2022/01/31 06:13:32;;;;;;;8.43;2.73;;;;;;;4.03;78.01;97588.19;5055616;28;20282;-70
2022/01/31 06:15:58;;;;;;;8.77;2.37;;;;;;;4.07;76.49;97579.72;5055615;28;20545;-71
2022/01/31 06:18:25;;;;;;;8.30;2.93;;;;;;;4.00;78.54;97576.25;5055522;28;20475;-70
2022/01/31 06:20:51;;;;;;;9.60;3.20;;;;;;;3.95;80.21;97564.66;5055431;28;20213;-71
2022/01/31 06:23:17;;;;;;;6.67;3.03;;;;;;;3.87;82.37;97573.50;5055554;28;20220;-70
2022/01/31 06:25:45;;;;;;;6.77;2.87;;;;;;;3.83;81.66;97566.16;5055546;28;20212;-71
2022/01/31 06:28:11;;;;;;;7.93;2.57;;;;;;;3.83;81.53;97566.16;5055018;28;20189;-72
2022/01/31 06:30:38;;;;;;;8.97;2.93;;;;;;;3.83;82.01;97563.53;5055616;28;20186;-71
2022/01/31 06:33:04;;;;;;;8.90;2.70;;;;;;;3.77;82.97;97559.03;5055219;28;20222;-69
2022/01/31 06:35:31;;;;;;;7.17;2.87;;;;;;;3.72;84.25;97558.78;5054885;28;20213;-72
2022/01/31 06:37:57;;;;;;;7.33;2.87;;;;;;;3.69;85.03;97561.78;5055033;28;20190;-72
2022/01/31 06:40:24;;;;;;;8.47;2.90;;;;;;;3.66;86.08;97549.03;5057915;28;20241;-72
2022/01/31 06:42:50;;;;;;;8.63;2.73;;;;;;;3.62;87.64;97553.03;5059061;28;20243;-72
2022/01/31 06:45:16;;;;;;;8.93;2.70;;;;;;;3.52;88.64;97547.28;5059735;28;20193;-72
2022/01/31 06:47:43;;;;;;;6.40;2.30;;;;;;;3.50;88.79;97554.53;5058900;28;20186;-72
2022/01/31 06:50:09;;;;;;;10.80;3.40;;;;;;;3.46;88.91;97553.25;5059037;28;20193;-72
2022/01/31 06:52:37;;;;;;;10.00;3.40;;;;;;;3.37;90.82;97555.19;5058505;28;20646;-72
2022/01/31 06:55:06;;;;;;;7.07;3.10;;;;;;;3.50;89.98;97565.03;5059183;28;20190;-72
2022/01/31 06:57:34;;;;;;;8.43;2.87;;;;;;;3.49;90.86;97564.22;5058800;28;20277;-72
2022/01/31 07:00:10;;;;;;;9.43;3.33;;;;;;;3.47;91.88;97565.38;5058528;28;20667;-72
2022/01/31 07:02:36;;;;;;;10.00;3.47;;;;;;;3.48;91.94;97569.69;5058770;28;20264;-72
2022/01/31 07:05:03;;;;;;;7.13;2.60;;;;;;;3.54;91.65;97574.16;5058563;28;20189;-72
2022/01/31 07:07:30;;;;;;;6.00;2.90;;;;;;;3.54;90.90;97571.53;5058367;28;20194;-72
2022/01/31 07:09:57;;;;;;;9.37;3.00;;;;;;;3.56;91.58;97572.16;5058721;28;20194;-72
2022/01/31 07:12:30;;;;;;;9.17;2.90;;;;;;;3.53;92.74;97575.97;5058369;28;20651;-72
2022/01/31 07:14:57;;;;;;;8.23;3.70;;;;;;;3.53;92.87;97586.47;5058548;28;20607;-72
2022/01/31 07:17:23;;;;;;;9.63;3.47;;;;;;;3.53;93.16;97581.22;5058704;28;20194;-72
2022/01/31 07:19:49;;;;;;;13.70;3.13;;;;;;;3.51;93.50;97575.38;5058666;28;20204;-72
2022/01/31 07:22:18;;;;;;;6.30;2.70;;;;;;;3.54;93.58;97563.66;5058198;28;20312;-72
2022/01/31 07:24:48;;;;;;;5.73;2.40;;;;;;;3.53;93.19;97565.47;5058360;28;20599;-72
2022/01/31 07:27:14;;;;;;;6.70;2.60;;;;;;;3.48;93.77;97561.78;5058565;28;20247;-72
2022/01/31 07:29:41;;;;;;;5.27;2.60;;;;;;;3.52;93.07;97576.19;5058327;28;20466;-71
2022/01/31 07:32:11;;;;;;;8.50;2.50;;;;;;;3.49;94.57;97576.53;5058095;28;20224;-72
2022/01/31 07:34:39;;;;;;;7.50;2.80;;;;;;;3.42;95.21;97568.59;5058149;28;20243;-72
2022/01/31 07:37:06;;;;;;;7.80;2.30;;;;;;;3.41;95.99;97566.97;5058441;28;20497;-72
2022/01/31 07:39:33;;;;;;;7.27;2.83;;;;;;;3.46;96.05;97561.16;5058116;28;20189;-72
2022/01/31 07:41:59;;;;;;;8.23;2.83;;;;;;;3.44;97.21;97576.28;5057959;28;20221;-72
2022/01/31 07:44:25;;;;;;;5.00;2.20;;;;;;;3.47;96.63;97565.38;5057888;28;20209;-72
2022/01/31 07:46:52;;;;;;;5.10;1.93;;;;;;;3.45;97.22;97572.66;5037800;28;20231;-72
2022/01/31 07:49:21;;;;;;;5.27;2.40;;;;;;;3.48;97.41;97577.56;5037893;28;20205;-74
2022/01/31 07:51:47;;;;;;;3.47;1.97;;;;;;;3.52;96.76;97578.81;5036917;28;20225;-74
2022/01/31 07:54:14;;;;;;;3.87;2.00;;;;;;;3.52;96.62;97576.19;5038087;28;20200;-73
2022/01/31 07:56:40;;;;;;;1.63;1.20;;;;;;;3.60;94.87;97576.03;5038127;28;20205;-72
2022/01/31 07:59:06;;;;;;;1.40;1.07;;;;;;;3.60;95.81;97578.66;5038070;28;20190;-74
2022/01/31 08:01:33;;;;;;;3.93;1.57;;;;;;;3.64;95.18;97579.94;5037426;28;20514;-74
2022/01/31 08:03:59;;;;;;;1.53;1.03;;;;;;;3.73;95.34;97586.69;5037970;28;20261;-73
2022/01/31 08:06:26;;;;;;;1.53;1.00;;;;;;;3.79;93.63;97570.19;5037723;28;20197;-71
2022/01/31 08:08:54;;;;;;;1.40;0.90;;;;;;;3.83;93.22;97568.78;5037524;28;20206;-70
2022/01/31 08:11:23;;;;;;;2.17;1.00;;;;;;;3.84;94.73;97583.59;5037410;28;20309;-71
2022/01/31 08:13:54;;;;;;;1.27;1.10;;;;;;;3.88;92.65;97590.09;5037686;28;20190;-71
2022/01/31 08:16:21;;;;;;;1.23;0.90;;;;;;;3.89;93.78;97589.09;5037708;28;20275;-71
2022/01/31 08:18:48;;;;;;;2.37;0.80;;;;;;;3.87;93.57;97604.22;5037704;28;20194;-71
2022/01/31 08:21:16;;;;;;;1.60;0.80;;;;;;;3.91;91.92;97590.53;5037149;28;20241;-70
2022/01/31 08:23:43;;;;;;;1.77;0.90;;;;;;;3.92;92.36;97607.09;5036777;28;20697;-71
2022/01/31 08:26:15;;;;;;;2.70;0.73;;;;;;;4.00;91.51;97601.72;5037145;28;20186;-71
2022/01/31 08:28:44;;;;;;;1.67;0.97;;;;;;;3.95;91.93;97594.41;5037482;28;20233;-71
2022/01/31 08:31:16;;;;;;;1.80;0.80;;;;;;;3.97;90.86;97604.75;5037433;28;20208;-71
2022/01/31 08:33:48;;;;;;;1.33;0.77;;;;;;;4.04;90.71;97603.78;5037408;28;20271;-70
2022/01/31 08:36:15;;;;;;;2.23;0.80;;;;;;;4.11;91.41;97609.13;5037073;28;20197;-71
2022/01/31 08:38:43;;;;;;;1.00;0.70;;;;;;;4.19;89.27;97608.97;5037892;28;20195;-70
2022/01/31 08:41:11;;;;;;;1.80;0.70;;;;;;;4.18;88.96;97607.34;5037008;28;20234;-71
2022/01/31 08:43:39;;;;;;;0.53;0.53;;;;;;;4.21;88.24;97596.44;5037041;28;20190;-71
2022/01/31 08:46:07;;;;;;;1.30;0.73;;;;;;;4.27;88.25;97593.88;5037148;28;20190;-71
2022/01/31 08:48:34;;;;;;;2.40;0.83;;;;;;;4.27;87.09;97585.97;5037296;28;20201;-71
2022/01/31 08:51:01;;;;;;;2.23;1.10;;;;;;;4.34;87.58;97591.28;5037096;28;20289;-70
2022/01/31 08:53:28;;;;;;;1.70;0.77;;;;;;;4.45;86.97;97594.22;5036869;28;20213;-71
2022/01/31 08:55:57;;;;;;;1.57;0.70;;;;;;;4.49;85.79;97584.09;5036840;28;20190;-71
2022/01/31 08:58:23;;;;;;;1.10;0.70;;;;;;;4.46;86.88;97585.31;5037593;28;20475;-71
2022/01/31 09:00:58;;;;;;;2.73;0.90;;;;;;;4.51;86.30;97576.81;5036810;28;20270;-70
2022/01/31 09:03:41;;;;;;;1.27;0.70;;;;;;;4.62;85.14;97566.56;5036537;28;20303;-73
2022/01/31 09:06:09;;;;;;;1.53;0.60;;;;;;;4.64;85.12;97566.38;5036940;28;20194;-71
2022/01/31 09:08:37;;;;;;;2.40;0.87;;;;;;;4.68;83.66;97567.63;5036666;28;20201;-71
2022/01/31 09:11:04;;;;;;;1.40;0.80;;;;;;;4.73;83.10;97566.03;5036801;28;20197;-71
2022/01/31 09:13:31;;;;;;;0.73;0.73;;;;;;;4.85;83.08;97571.56;5036814;28;20225;-72
2022/01/31 09:15:58;;;;;;;2.73;1.20;;;;;;;4.98;82.32;97561.09;5036767;28;20197;-71
2022/01/31 09:18:24;;;;;;;4.00;1.00;;;;;;;5.17;82.23;97553.28;5055065;28;20592;-71
2022/01/31 09:20:51;;;;;;;3.40;1.10;;;;;;;5.19;80.94;97556.53;5056532;28;20509;-70
2022/01/31 09:23:17;;;;;;;1.20;1.10;;;;;;;5.35;80.33;97542.19;5056619;28;20228;-70
2022/01/31 09:25:46;;;;;;;1.93;0.90;;;;;;;5.42;78.27;97564.13;5056703;28;20197;-70
2022/01/31 09:28:13;;;;;;;2.47;0.93;;;;;;;5.66;77.14;97551.16;5056436;28;20189;-72
2022/01/31 09:30:40;;;;;;;1.73;0.97;;;;;;;5.67;78.68;97576.56;5056515;28;20197;-71
2022/01/31 09:33:07;;;;;;;1.50;0.80;;;;;;;5.56;77.58;97571.06;5056320;28;20217;-70
2022/01/31 09:35:34;;;;;;;2.97;0.93;;;;;;;5.66;77.72;97574.13;5056510;28;20189;-71
2022/01/31 09:38:02;;;;;;;2.57;1.10;;;;;;;5.64;77.21;97579.56;5056395;28;20251;-72
2022/01/31 09:40:28;;;;;;;1.53;1.13;;;;;;;5.80;76.54;97575.75;5056498;28;20195;-71
2022/01/31 09:43:25;;;;;;;4.17;1.37;;;;;;;5.74;76.22;97577.38;5055732;28;20316;-71
2022/01/31 09:46:02;;;;;;;3.40;1.13;;;;;;;6.11;75.85;97570.75;5055853;28;20692;-71
2022/01/31 09:48:32;;;;;;;2.37;0.97;;;;;;;6.14;74.44;97562.41;5056188;28;20277;-71
2022/01/31 09:51:00;;;;;;;1.23;1.00;;;;;;;5.91;74.75;97560.19;5056196;28;20194;-71
2022/01/31 09:53:26;;;;;;;2.00;1.20;;;;;;;5.65;74.79;97572.50;5056085;28;20219;-71
2022/01/31 09:55:53;;;;;;;2.40;0.90;;;;;;;5.45;76.50;97566.34;5056186;28;20200;-71
2022/01/31 09:58:20;;;;;;;2.67;1.10;;;;;;;5.42;75.95;97562.28;5055855;28;20603;-71
2022/01/31 10:00:47;;;;;;;3.00;1.10;;;;;;;5.36;74.70;97562.25;5056027;28;20186;-71
2022/01/31 10:03:13;;;;;;;3.70;1.30;;;;;;;5.34;75.44;97561.66;5055797;28;20225;-71
2022/01/31 10:05:41;;;;;;;3.47;1.40;;;;;;;5.32;74.53;97551.31;5056064;28;20193;-71
2022/01/31 10:08:16;;;;;;;2.57;1.00;;;;;;;5.30;74.63;97573.59;5056104;28;20205;-71
2022/01/31 10:10:45;;;;;;;2.77;1.30;;;;;;;5.27;74.41;97573.97;5056012;28;20192;-71
2022/01/31 10:16:26;;;;;;;5.37;1.70;;;;;;;5.37;74.89;97563.88;5060063;28;20192;-71
2022/01/31 10:19:10;;;;;;;2.47;1.17;;;;;;;5.39;74.52;97572.41;5060249;28;20189;-71
2022/01/31 10:21:57;;;;;;;2.80;1.30;;;;;;;5.41;74.00;97575.66;5060018;28;20220;-71
2022/01/31 10:24:24;;;;;;;4.40;1.30;;;;;;;5.42;75.47;97572.81;5060141;28;20193;-71
2022/01/31 10:26:52;;;;;;;3.00;1.30;;;;;;;5.39;74.42;97567.13;5059973;28;20194;-71
2022/01/31 10:29:21;;;;;;;3.33;1.30;;;;;;;5.38;73.89;97557.63;5059891;28;20538;-71
2022/01/31 10:31:57;;;;;;;3.30;1.40;;;;;;;5.43;73.43;97560.47;5059824;28;20221;-71
2022/01/31 10:34:24;;;;;;;3.17;1.30;;;;;;;5.42;73.19;97546.47;5059331;28;20275;-71
2022/01/31 10:36:51;;;;;;;3.33;1.00;;;;;;;5.49;74.16;97542.03;5059831;28;20205;-71
2022/01/31 10:45:10;;;;;;;4.60;1.40;;;;;;;5.49;72.20;97535.94;5059098;28;20191;-71
2022/01/31 10:53:18;;;;;;;3.47;1.20;;;;;;;5.67;71.66;97544.09;4978622;28;20222;-72
2022/01/31 10:55:54;;;;;;;1.90;1.30;;;;;;;5.63;70.68;97524.41;5040570;28;20202;-71
2022/01/31 10:58:20;;;;;;;3.27;1.30;;;;;;;5.65;71.11;97523.19;5058991;28;20239;-72
2022/01/31 11:00:46;;;;;;;2.23;1.23;;;;;;;5.61;70.19;97523.81;5059229;28;20200;-72
2022/01/31 11:03:33;;;;;;;2.30;1.00;;;;;;;5.54;70.06;97523.78;5058797;28;20225;-72
2022/01/31 11:06:10;;;;;;;3.07;1.10;;;;;;;5.52;70.66;97517.88;5058875;28;20289;-71
2022/01/31 11:08:36;;;;;;;4.23;1.23;;;;;;;5.61;71.63;97518.53;5058977;28;20220;-71
2022/01/31 11:11:04;;;;;;;3.53;1.53;;;;;;;5.64;71.11;97518.94;5059044;28;20193;-72
2022/01/31 11:13:34;;;;;;;3.37;1.00;;;;;;;5.63;71.41;97513.84;5059094;28;20200;-71
2022/01/31 11:16:00;;;;;;;2.27;0.90;;;;;;;5.78;71.69;97502.09;5058865;28;20200;-72
2022/01/31 11:18:30;;;;;;;2.70;1.13;;;;;;;5.86;71.43;97506.41;5058660;28;20600;-71
2022/01/31 11:21:01;;;;;;;4.17;1.30;;;;;;;5.90;70.41;97507.63;5058758;28;20200;-72
2022/01/31 11:23:29;;;;;;;2.23;1.10;;;;;;;5.87;70.21;97522.03;5058541;28;20220;-72
2022/01/31 11:26:01;;;;;;;3.77;1.10;;;;;;;5.83;70.53;97512.88;5058710;28;20189;-71
2022/01/31 11:28:31;;;;;;;1.93;0.90;;;;;;;5.74;70.35;97511.44;5058769;28;20192;-71
2022/01/31 11:31:01;;;;;;;3.23;1.20;;;;;;;5.74;70.49;97516.72;5058347;28;20577;-71
2022/01/31 11:33:28;;;;;;;4.00;1.50;;;;;;;5.75;71.17;97533.34;5058519;28;20542;-70
2022/01/31 11:35:55;;;;;;;3.73;1.80;;;;;;;5.58;71.27;97517.09;5058742;28;20190;-70
2022/01/31 11:38:22;;;;;;;3.07;1.20;;;;;;;5.50;70.93;97522.56;5058292;28;20202;-70
2022/01/31 11:40:49;;;;;;;4.37;1.47;;;;;;;5.47;71.52;97540.59;5058453;28;20190;-70
2022/01/31 11:43:17;;;;;;;4.63;1.10;;;;;;;5.37;72.15;97532.25;5058531;28;20224;-70
2022/01/31 11:45:46;;;;;;;4.53;1.10;;;;;;;5.25;73.56;97531.22;5058436;28;20204;-71
2022/01/31 11:48:21;;;;;;;1.60;0.90;;;;;;;5.22;75.26;97526.34;5058042;28;20194;-71
2022/01/31 11:50:57;;;;;;;4.30;0.90;;;;;;;5.15;74.53;97522.88;5058414;28;20195;-70
2022/01/31 11:53:30;;;;;;;1.90;1.10;;;;;;;5.10;76.04;97518.19;5058077;28;20188;-71
2022/01/31 11:56:07;;;;;;;1.73;0.83;;;;;;;5.10;74.23;97525.28;5058172;28;20193;-71